Nags Head, North Carolina
Current Conditions -  °F | °C
As of 2:55 AM on Thursday 23 Oct 2014 (Local Time) from KFFA Reporting Station
Overcast Overcast  
Wind Chill: 56°   Ceiling: 3200
Heat Index: 56°   Visibility: 10mi
Dew Point: 47°   Wind: 12mph
Humidity: 73%   Direction: 290°WNW
Pressure: 29.87"   Gusts: 24mph
Location:  35.96°N, 75.62°W
Report Text: KFFA 230655Z AUTO 29010G21KT 260V320 10SM SCT026 OVC032 13/08 A2987 RMK AO2 T01310083
Loading
Personal Weather Stations






























Interactive Weather Map
Tropical Storm Tracking
New forecast layout! Learn more

10-Day Weather Forecast

Advertisements
Track Severe Weather on mobile